sensor_id;sensor_type;location;lat;lon;timestamp;pressure;altitude;pressure_sealevel;temperature;humidity
70555;BME280;58104;52.744;15.242;2024-02-21T00:02:13;101322.65;;;17.23;48.57
70555;BME280;58104;52.744;15.242;2024-02-21T00:04:38;101318.15;;;17.21;48.95
70555;BME280;58104;52.744;15.242;2024-02-21T00:07:04;101319.64;;;17.20;48.88
70555;BME280;58104;52.744;15.242;2024-02-21T00:09:29;101320.60;;;17.21;49.19
70555;BME280;58104;52.744;15.242;2024-02-21T00:11:54;101318.17;;;17.21;49.21
70555;BME280;58104;52.744;15.242;2024-02-21T00:14:20;101314.22;;;17.23;48.97
70555;BME280;58104;52.744;15.242;2024-02-21T00:16:45;101311.14;;;17.30;48.63
70555;BME280;58104;52.744;15.242;2024-02-21T00:19:10;101305.10;;;17.31;48.30
70555;BME280;58104;52.744;15.242;2024-02-21T00:21:36;101306.75;;;17.23;49.06
70555;BME280;58104;52.744;15.242;2024-02-21T00:24:02;101309.10;;;17.34;48.83
70555;BME280;58104;52.744;15.242;2024-02-21T00:26:27;101301.17;;;17.25;48.59
70555;BME280;58104;52.744;15.242;2024-02-21T00:28:53;101301.22;;;17.33;48.37
70555;BME280;58104;52.744;15.242;2024-02-21T00:31:18;101298.68;;;17.28;48.68
70555;BME280;58104;52.744;15.242;2024-02-21T00:33:43;101293.76;;;17.23;49.15
70555;BME280;58104;52.744;15.242;2024-02-21T00:36:08;101292.61;;;17.27;48.73
70555;BME280;58104;52.744;15.242;2024-02-21T00:38:33;101289.17;;;17.25;48.75
70555;BME280;58104;52.744;15.242;2024-02-21T00:40:59;101286.24;;;17.24;48.72
70555;BME280;58104;52.744;15.242;2024-02-21T00:43:24;101282.07;;;17.29;48.38
70555;BME280;58104;52.744;15.242;2024-02-21T00:45:50;101280.34;;;17.31;48.73
70555;BME280;58104;52.744;15.242;2024-02-21T00:48:15;101274.24;;;17.17;48.93
70555;BME280;58104;52.744;15.242;2024-02-21T00:50:40;101270.04;;;17.34;48.52
70555;BME280;58104;52.744;15.242;2024-02-21T00:53:06;101271.43;;;17.22;48.67
70555;BME280;58104;52.744;15.242;2024-02-21T00:55:31;101269.81;;;17.18;48.46
70555;BME280;58104;52.744;15.242;2024-02-21T00:57:57;101263.27;;;17.20;48.52
70555;BME280;58104;52.744;15.242;2024-02-21T01:00:22;101260.47;;;17.18;48.44
70555;BME280;58104;52.744;15.242;2024-02-21T01:02:47;101253.50;;;17.29;49.02
70555;BME280;58104;52.744;15.242;2024-02-21T01:05:13;101249.57;;;17.29;48.50
70555;BME280;58104;52.744;15.242;2024-02-21T01:07:38;101242.40;;;17.19;48.60
70555;BME280;58104;52.744;15.242;2024-02-21T01:10:04;101238.48;;;17.29;48.21
70555;BME280;58104;52.744;15.242;2024-02-21T01:12:29;101236.91;;;17.27;48.86
70555;BME280;58104;52.744;15.242;2024-02-21T01:14:54;101233.00;;;17.19;48.13
70555;BME280;58104;52.744;15.242;2024-02-21T01:17:19;101236.37;;;17.11;48.55
70555;BME280;58104;52.744;15.242;2024-02-21T01:19:46;101233.92;;;17.21;48.61
70555;BME280;58104;52.744;15.242;2024-02-21T01:22:10;101236.55;;;17.23;48.73
70555;BME280;58104;52.744;15.242;2024-02-21T01:24:35;101233.69;;;17.18;48.81
70555;BME280;58104;52.744;15.242;2024-02-21T01:27:00;101227.21;;;17.23;48.64
70555;BME280;58104;52.744;15.242;2024-02-21T01:29:27;101224.01;;;17.25;48.72
70555;BME280;58104;52.744;15.242;2024-02-21T01:31:51;101221.21;;;17.16;48.35
70555;BME280;58104;52.744;15.242;2024-02-21T01:34:17;101218.47;;;17.17;48.59
70555;BME280;58104;52.744;15.242;2024-02-21T01:36:42;101218.59;;;17.27;48.65
70555;BME280;58104;52.744;15.242;2024-02-21T01:39:08;101219.67;;;17.36;48.22
70555;BME280;58104;52.744;15.242;2024-02-21T01:41:33;101220.50;;;17.25;48.24
70555;BME280;58104;52.744;15.242;2024-02-21T01:43:58;101217.08;;;17.28;48.81
70555;BME280;58104;52.744;15.242;2024-02-21T01:46:24;101218.94;;;17.21;48.49
70555;BME280;58104;52.744;15.242;2024-02-21T01:48:50;101219.98;;;17.18;48.55
70555;BME280;58104;52.744;15.242;2024-02-21T01:51:15;101221.44;;;17.23;47.75
70555;BME280;58104;52.744;15.242;2024-02-21T01:53:43;101218.68;;;17.28;48.46
70555;BME280;58104;52.744;15.242;2024-02-21T01:56:06;101213.58;;;17.18;48.65
70555;BME280;58104;52.744;15.242;2024-02-21T01:58:32;101209.65;;;17.27;47.80
70555;BME280;58104;52.744;15.242;2024-02-21T02:00:57;101207.48;;;17.25;47.92
70555;BME280;58104;52.744;15.242;2024-02-21T02:03:22;101202.46;;;17.10;48.49
70555;BME280;58104;52.744;15.242;2024-02-21T02:05:49;101199.50;;;17.15;47.93
70555;BME280;58104;52.744;15.242;2024-02-21T02:08:13;101193.86;;;17.05;48.58
70555;BME280;58104;52.744;15.242;2024-02-21T02:10:39;101194.48;;;17.21;48.22
70555;BME280;58104;52.744;15.242;2024-02-21T02:13:04;101190.94;;;17.20;48.41
70555;BME280;58104;52.744;15.242;2024-02-21T02:15:37;101187.57;;;17.13;48.22
70555;BME280;58104;52.744;15.242;2024-02-21T02:17:54;101181.90;;;17.20;48.26
70555;BME280;58104;52.744;15.242;2024-02-21T02:20:20;101176.64;;;17.21;48.53
70555;BME280;58104;52.744;15.242;2024-02-21T02:22:47;101172.42;;;17.13;48.56
70555;BME280;58104;52.744;15.242;2024-02-21T02:25:11;101167.85;;;17.15;48.55
70555;BME280;58104;52.744;15.242;2024-02-21T02:27:41;101166.41;;;17.23;48.30
70555;BME280;58104;52.744;15.242;2024-02-21T02:30:01;101163.94;;;17.21;48.46
70555;BME280;58104;52.744;15.242;2024-02-21T02:32:27;101157.09;;;17.11;48.10
70555;BME280;58104;52.744;15.242;2024-02-21T02:34:52;101156.22;;;17.12;48.01
70555;BME280;58104;52.744;15.242;2024-02-21T02:37:17;101151.28;;;17.02;48.13
70555;BME280;58104;52.744;15.242;2024-02-21T02:39:43;101148.25;;;17.10;48.11
70555;BME280;58104;52.744;15.242;2024-02-21T02:42:08;101146.20;;;17.13;48.13
70555;BME280;58104;52.744;15.242;2024-02-21T02:44:34;101147.09;;;16.96;48.12
70555;BME280;58104;52.744;15.242;2024-02-21T02:46:59;101147.26;;;17.04;48.22
70555;BME280;58104;52.744;15.242;2024-02-21T02:49:25;101144.26;;;17.03;47.81
70555;BME280;58104;52.744;15.242;2024-02-21T02:51:50;101145.35;;;16.93;47.51
70555;BME280;58104;52.744;15.242;2024-02-21T02:54:16;101138.37;;;16.98;48.24
70555;BME280;58104;52.744;15.242;2024-02-21T02:56:41;101134.55;;;16.89;48.63
70555;BME280;58104;52.744;15.242;2024-02-21T02:59:06;101135.34;;;16.81;48.48
70555;BME280;58104;52.744;15.242;2024-02-21T03:01:34;101130.79;;;16.91;47.89
70555;BME280;58104;52.744;15.242;2024-02-21T03:03:57;101131.22;;;16.81;48.07
70555;BME280;58104;52.744;15.242;2024-02-21T03:06:22;101127.88;;;16.84;48.35
70555;BME280;58104;52.744;15.242;2024-02-21T03:08:48;101124.78;;;16.90;48.26
70555;BME280;58104;52.744;15.242;2024-02-21T03:11:13;101122.14;;;16.82;48.36
70555;BME280;58104;52.744;15.242;2024-02-21T03:13:38;101118.60;;;16.85;48.39
70555;BME280;58104;52.744;15.242;2024-02-21T03:16:04;101117.84;;;16.91;48.26
70555;BME280;58104;52.744;15.242;2024-02-21T03:18:30;101118.43;;;16.89;48.26
70555;BME280;58104;52.744;15.242;2024-02-21T03:20:55;101114.57;;;16.98;48.36
70555;BME280;58104;52.744;15.242;2024-02-21T03:23:20;101114.08;;;16.92;48.26
70555;BME280;58104;52.744;15.242;2024-02-21T03:25:45;101110.10;;;16.99;48.06
70555;BME280;58104;52.744;15.242;2024-02-21T03:28:11;101107.95;;;16.96;48.04
70555;BME280;58104;52.744;15.242;2024-02-21T03:30:36;101103.47;;;16.95;48.25
70555;BME280;58104;52.744;15.242;2024-02-21T03:33:03;101102.74;;;16.95;48.42
70555;BME280;58104;52.744;15.242;2024-02-21T03:35:27;101096.69;;;16.99;47.87
70555;BME280;58104;52.744;15.242;2024-02-21T03:37:53;101096.42;;;16.96;47.90
70555;BME280;58104;52.744;15.242;2024-02-21T03:40:17;101092.45;;;16.94;47.63
70555;BME280;58104;52.744;15.242;2024-02-21T03:42:45;101096.76;;;16.92;47.87
70555;BME280;58104;52.744;15.242;2024-02-21T03:45:09;101091.78;;;16.95;48.06
70555;BME280;58104;52.744;15.242;2024-02-21T03:47:34;101090.97;;;16.97;48.03
70555;BME280;58104;52.744;15.242;2024-02-21T03:50:00;101088.79;;;16.95;48.26
70555;BME280;58104;52.744;15.242;2024-02-21T03:52:25;101079.80;;;16.95;48.57
70555;BME280;58104;52.744;15.242;2024-02-21T03:54:51;101078.41;;;16.99;47.73
70555;BME280;58104;52.744;15.242;2024-02-21T03:57:16;101076.00;;;16.99;48.19
70555;BME280;58104;52.744;15.242;2024-02-21T03:59:42;101072.25;;;17.00;47.96
70555;BME280;58104;52.744;15.242;2024-02-21T04:02:07;101071.71;;;17.05;47.86
70555;BME280;58104;52.744;15.242;2024-02-21T04:04:33;101063.46;;;16.92;47.84
70555;BME280;58104;52.744;15.242;2024-02-21T04:06:59;101061.29;;;16.95;47.71
70555;BME280;58104;52.744;15.242;2024-02-21T04:09:23;101060.26;;;16.82;48.41
70555;BME280;58104;52.744;15.242;2024-02-21T04:11:49;101058.71;;;16.96;48.30
70555;BME280;58104;52.744;15.242;2024-02-21T04:14:14;101057.70;;;17.02;47.72
70555;BME280;58104;52.744;15.242;2024-02-21T04:16:40;101057.91;;;17.02;47.99
70555;BME280;58104;52.744;15.242;2024-02-21T04:19:05;101051.65;;;16.96;48.14
70555;BME280;58104;52.744;15.242;2024-02-21T04:21:30;101050.43;;;16.97;47.50
70555;BME280;58104;52.744;15.242;2024-02-21T04:23:56;101049.36;;;16.99;47.84
70555;BME280;58104;52.744;15.242;2024-02-21T04:26:21;101044.83;;;16.99;48.02
70555;BME280;58104;52.744;15.242;2024-02-21T04:28:47;101037.84;;;17.01;48.30
70555;BME280;58104;52.744;15.242;2024-02-21T04:31:12;101032.95;;;17.01;48.02
70555;BME280;58104;52.744;15.242;2024-02-21T04:33:38;101026.69;;;16.90;48.01
70555;BME280;58104;52.744;15.242;2024-02-21T04:36:04;101026.25;;;16.93;47.56
70555;BME280;58104;52.744;15.242;2024-02-21T04:38:28;101028.52;;;17.00;47.67
70555;BME280;58104;52.744;15.242;2024-02-21T04:40:54;101024.81;;;16.96;48.19
70555;BME280;58104;52.744;15.242;2024-02-21T04:43:20;101025.21;;;17.00;47.74
70555;BME280;58104;52.744;15.242;2024-02-21T04:45:45;101020.08;;;16.92;47.92
70555;BME280;58104;52.744;15.242;2024-02-21T04:48:10;101013.02;;;17.00;48.07
70555;BME280;58104;52.744;15.242;2024-02-21T04:50:36;101010.68;;;16.86;48.35
70555;BME280;58104;52.744;15.242;2024-02-21T04:53:01;101011.29;;;16.94;48.88
70555;BME280;58104;52.744;15.242;2024-02-21T04:55:26;101013.07;;;16.95;49.13
70555;BME280;58104;52.744;15.242;2024-02-21T04:57:51;101011.48;;;17.02;48.66
70555;BME280;58104;52.744;15.242;2024-02-21T05:00:18;101009.96;;;17.08;48.99
70555;BME280;58104;52.744;15.242;2024-02-21T05:02:42;101003.57;;;17.02;49.34
70555;BME280;58104;52.744;15.242;2024-02-21T05:05:08;100997.77;;;17.03;51.54
70555;BME280;58104;52.744;15.242;2024-02-21T05:07:35;101001.72;;;17.01;51.75
70555;BME280;58104;52.744;15.242;2024-02-21T05:09:59;100997.99;;;17.08;51.80
70555;BME280;58104;52.744;15.242;2024-02-21T05:12:24;100995.68;;;17.10;52.06
70555;BME280;58104;52.744;15.242;2024-02-21T05:14:49;100991.73;;;17.27;52.05
70555;BME280;58104;52.744;15.242;2024-02-21T05:17:15;100988.26;;;17.14;52.18
70555;BME280;58104;52.744;15.242;2024-02-21T05:19:40;100989.06;;;17.11;51.84
70555;BME280;58104;52.744;15.242;2024-02-21T05:22:05;100987.35;;;17.19;52.40
70555;BME280;58104;52.744;15.242;2024-02-21T05:24:30;100985.53;;;17.14;51.89
70555;BME280;58104;52.744;15.242;2024-02-21T05:26:56;100979.81;;;17.17;52.04
70555;BME280;58104;52.744;15.242;2024-02-21T05:29:21;100973.92;;;17.15;52.25
70555;BME280;58104;52.744;15.242;2024-02-21T05:31:56;100976.02;;;17.15;52.61
70555;BME280;58104;52.744;15.242;2024-02-21T05:34:12;100971.81;;;17.14;52.55
70555;BME280;58104;52.744;15.242;2024-02-21T05:36:37;100970.39;;;17.13;52.00
70555;BME280;58104;52.744;15.242;2024-02-21T05:39:03;100966.47;;;17.18;51.90
70555;BME280;58104;52.744;15.242;2024-02-21T05:41:28;100959.11;;;17.17;52.51
70555;BME280;58104;52.744;15.242;2024-02-21T05:43:55;100955.98;;;17.15;51.91
70555;BME280;58104;52.744;15.242;2024-02-21T05:46:20;100955.25;;;17.15;52.15
70555;BME280;58104;52.744;15.242;2024-02-21T05:48:45;100962.84;;;17.06;52.03
70555;BME280;58104;52.744;15.242;2024-02-21T05:51:10;100958.29;;;17.08;52.31
70555;BME280;58104;52.744;15.242;2024-02-21T05:53:36;100960.46;;;17.04;52.83
70555;BME280;58104;52.744;15.242;2024-02-21T05:56:01;100968.06;;;16.83;52.19
70555;BME280;58104;52.744;15.242;2024-02-21T05:58:26;100969.75;;;16.42;51.41
70555;BME280;58104;52.744;15.242;2024-02-21T06:00:52;100966.73;;;14.43;52.30
70555;BME280;58104;52.744;15.242;2024-02-21T06:03:17;100965.08;;;14.32;53.95
70555;BME280;58104;52.744;15.242;2024-02-21T06:05:43;100956.74;;;14.71;55.40
70555;BME280;58104;52.744;15.242;2024-02-21T06:08:08;100949.61;;;14.84;54.03
70555;BME280;58104;52.744;15.242;2024-02-21T06:10:34;100958.95;;;13.75;59.66
70555;BME280;58104;52.744;15.242;2024-02-21T06:12:59;100950.06;;;14.06;60.48
70555;BME280;58104;52.744;15.242;2024-02-21T06:15:24;100946.94;;;13.69;57.43
70555;BME280;58104;52.744;15.242;2024-02-21T06:17:50;100943.47;;;14.74;59.35
70555;BME280;58104;52.744;15.242;2024-02-21T06:20:16;100930.61;;;15.08;55.93
70555;BME280;58104;52.744;15.242;2024-02-21T06:22:40;100922.11;;;15.38;55.88
70555;BME280;58104;52.744;15.242;2024-02-21T06:25:05;100911.98;;;15.60;55.42
70555;BME280;58104;52.744;15.242;2024-02-21T06:27:31;100911.91;;;15.73;54.75
70555;BME280;58104;52.744;15.242;2024-02-21T06:29:56;100926.80;;;15.48;53.88
70555;BME280;58104;52.744;15.242;2024-02-21T06:32:22;100929.29;;;15.55;54.46
70555;BME280;58104;52.744;15.242;2024-02-21T06:34:47;100941.70;;;14.12;57.07
70555;BME280;58104;52.744;15.242;2024-02-21T06:37:13;100945.74;;;13.91;57.16
70555;BME280;58104;52.744;15.242;2024-02-21T06:39:38;100941.20;;;13.62;57.23
70555;BME280;58104;52.744;15.242;2024-02-21T06:42:04;100936.66;;;14.37;58.74
70555;BME280;58104;52.744;15.242;2024-02-21T06:44:29;100933.01;;;14.69;56.75
70555;BME280;58104;52.744;15.242;2024-02-21T06:46:54;100933.32;;;13.73;59.18
70555;BME280;58104;52.744;15.242;2024-02-21T06:49:20;100935.63;;;14.48;55.87
70555;BME280;58104;52.744;15.242;2024-02-21T06:51:45;100928.01;;;14.09;55.68
70555;BME280;58104;52.744;15.242;2024-02-21T06:54:10;100924.27;;;14.20;55.56
70555;BME280;58104;52.744;15.242;2024-02-21T06:56:37;100930.88;;;14.91;54.35
70555;BME280;58104;52.744;15.242;2024-02-21T06:59:01;100937.74;;;15.53;55.67
70555;BME280;58104;52.744;15.242;2024-02-21T07:01:27;100939.56;;;16.08;52.63
70555;BME280;58104;52.744;15.242;2024-02-21T07:03:52;100946.60;;;16.48;52.03
70555;BME280;58104;52.744;15.242;2024-02-21T07:06:18;100952.05;;;16.71;51.24
70555;BME280;58104;52.744;15.242;2024-02-21T07:08:43;100949.34;;;16.91;50.79
70555;BME280;58104;52.744;15.242;2024-02-21T07:11:08;100947.35;;;17.01;49.96
70555;BME280;58104;52.744;15.242;2024-02-21T07:13:34;100942.52;;;17.17;49.90
70555;BME280;58104;52.744;15.242;2024-02-21T07:15:59;100931.73;;;17.17;49.23
70555;BME280;58104;52.744;15.242;2024-02-21T07:18:24;100938.16;;;17.24;49.42
70555;BME280;58104;52.744;15.242;2024-02-21T07:20:50;100938.26;;;17.28;48.74
70555;BME280;58104;52.744;15.242;2024-02-21T07:23:15;100928.92;;;17.33;48.75
70555;BME280;58104;52.744;15.242;2024-02-21T07:25:41;100932.92;;;17.35;48.16
70555;BME280;58104;52.744;15.242;2024-02-21T07:28:06;100931.59;;;17.33;48.75
70555;BME280;58104;52.744;15.242;2024-02-21T07:30:32;100934.74;;;17.20;48.24
70555;BME280;58104;52.744;15.242;2024-02-21T07:32:57;100933.07;;;17.27;47.83
70555;BME280;58104;52.744;15.242;2024-02-21T07:35:23;100931.28;;;17.36;48.29
70555;BME280;58104;52.744;15.242;2024-02-21T07:37:48;100928.71;;;17.27;47.90
70555;BME280;58104;52.744;15.242;2024-02-21T07:40:16;100923.11;;;17.30;48.62
70555;BME280;58104;52.744;15.242;2024-02-21T07:42:39;100921.61;;;17.25;48.20
70555;BME280;58104;52.744;15.242;2024-02-21T07:45:05;100918.47;;;17.28;48.80
70555;BME280;58104;52.744;15.242;2024-02-21T07:47:29;100909.29;;;17.29;48.69
70555;BME280;58104;52.744;15.242;2024-02-21T07:49:55;100908.42;;;17.35;47.99
70555;BME280;58104;52.744;15.242;2024-02-21T07:52:20;100905.41;;;17.32;47.55
70555;BME280;58104;52.744;15.242;2024-02-21T07:54:46;100900.01;;;17.27;47.92
70555;BME280;58104;52.744;15.242;2024-02-21T07:57:12;100907.55;;;17.20;47.84
70555;BME280;58104;52.744;15.242;2024-02-21T07:59:37;100898.31;;;17.20;48.21
70555;BME280;58104;52.744;15.242;2024-02-21T08:02:03;100896.93;;;17.29;48.23
70555;BME280;58104;52.744;15.242;2024-02-21T08:04:28;100902.16;;;17.29;49.06
70555;BME280;58104;52.744;15.242;2024-02-21T08:06:54;100898.44;;;17.35;48.32
70555;BME280;58104;52.744;15.242;2024-02-21T08:09:20;100898.86;;;17.33;48.12
70555;BME280;58104;52.744;15.242;2024-02-21T08:11:44;100900.57;;;17.25;47.69
70555;BME280;58104;52.744;15.242;2024-02-21T08:14:09;100900.79;;;17.26;47.60
70555;BME280;58104;52.744;15.242;2024-02-21T08:16:35;100890.76;;;17.28;48.32
70555;BME280;58104;52.744;15.242;2024-02-21T08:19:00;100887.46;;;17.22;47.48
70555;BME280;58104;52.744;15.242;2024-02-21T08:21:28;100891.48;;;17.21;48.10
70555;BME280;58104;52.744;15.242;2024-02-21T08:23:51;100890.52;;;17.17;47.87
70555;BME280;58104;52.744;15.242;2024-02-21T08:26:17;100888.93;;;17.17;47.54
70555;BME280;58104;52.744;15.242;2024-02-21T08:28:41;100889.37;;;17.22;47.72
70555;BME280;58104;52.744;15.242;2024-02-21T08:31:07;100892.05;;;17.23;48.40
70555;BME280;58104;52.744;15.242;2024-02-21T08:33:32;100884.91;;;17.11;48.12
70555;BME280;58104;52.744;15.242;2024-02-21T08:35:58;100883.62;;;17.27;47.42
70555;BME280;58104;52.744;15.242;2024-02-21T08:38:23;100879.45;;;17.16;47.63
70555;BME280;58104;52.744;15.242;2024-02-21T08:40:48;100877.27;;;17.25;48.42
70555;BME280;58104;52.744;15.242;2024-02-21T08:43:13;100882.05;;;17.31;47.66
70555;BME280;58104;52.744;15.242;2024-02-21T08:45:39;100878.96;;;17.28;47.33
70555;BME280;58104;52.744;15.242;2024-02-21T08:48:06;100877.27;;;17.31;47.88
70555;BME280;58104;52.744;15.242;2024-02-21T08:50:30;100882.01;;;17.28;48.15
70555;BME280;58104;52.744;15.242;2024-02-21T08:52:55;100878.80;;;17.26;47.50
70555;BME280;58104;52.744;15.242;2024-02-21T08:55:21;100881.14;;;17.20;47.45
70555;BME280;58104;52.744;15.242;2024-02-21T08:57:46;100875.52;;;17.16;48.17
70555;BME280;58104;52.744;15.242;2024-02-21T09:00:13;100879.79;;;17.24;47.94
70555;BME280;58104;52.744;15.242;2024-02-21T09:02:40;100875.18;;;17.25;47.38
70555;BME280;58104;52.744;15.242;2024-02-21T09:05:03;100869.73;;;17.27;47.75
70555;BME280;58104;52.744;15.242;2024-02-21T09:07:28;100871.31;;;17.31;47.36
70555;BME280;58104;52.744;15.242;2024-02-21T09:09:54;100878.84;;;17.36;48.00
70555;BME280;58104;52.744;15.242;2024-02-21T09:12:19;100883.24;;;17.35;47.36
70555;BME280;58104;52.744;15.242;2024-02-21T09:14:44;100887.46;;;17.32;47.34
70555;BME280;58104;52.744;15.242;2024-02-21T09:17:10;100883.01;;;17.30;47.37
70555;BME280;58104;52.744;15.242;2024-02-21T09:19:35;100888.44;;;17.30;47.68
70555;BME280;58104;52.744;15.242;2024-02-21T09:22:00;100878.24;;;17.28;47.83
70555;BME280;58104;52.744;15.242;2024-02-21T09:24:26;100885.72;;;17.29;47.00
70555;BME280;58104;52.744;15.242;2024-02-21T09:26:51;100886.75;;;17.37;47.42
70555;BME280;58104;52.744;15.242;2024-02-21T09:29:17;100884.27;;;17.35;47.53
70555;BME280;58104;52.744;15.242;2024-02-21T09:31:42;100887.95;;;17.47;46.57
70555;BME280;58104;52.744;15.242;2024-02-21T09:34:07;100874.05;;;17.48;46.74
70555;BME280;58104;52.744;15.242;2024-02-21T09:36:33;100881.54;;;17.53;47.42
70555;BME280;58104;52.744;15.242;2024-02-21T09:38:58;100881.63;;;17.52;46.86
70555;BME280;58104;52.744;15.242;2024-02-21T09:41:26;100889.10;;;17.45;46.81
70555;BME280;58104;52.744;15.242;2024-02-21T09:43:50;100885.30;;;17.43;47.63
70555;BME280;58104;52.744;15.242;2024-02-21T09:46:17;100891.62;;;17.43;47.03
70555;BME280;58104;52.744;15.242;2024-02-21T09:48:50;100881.75;;;17.47;47.13
70555;BME280;58104;52.744;15.242;2024-02-21T09:51:06;100885.16;;;17.54;47.03
70555;BME280;58104;52.744;15.242;2024-02-21T09:53:31;100877.49;;;17.49;47.34
70555;BME280;58104;52.744;15.242;2024-02-21T09:55:56;100877.37;;;17.53;46.65
70555;BME280;58104;52.744;15.242;2024-02-21T09:58:21;100873.61;;;17.51;47.03
70555;BME280;58104;52.744;15.242;2024-02-21T10:00:46;100869.99;;;17.55;47.15
70555;BME280;58104;52.744;15.242;2024-02-21T10:03:12;100865.88;;;17.53;47.01
70555;BME280;58104;52.744;15.242;2024-02-21T10:05:38;100863.45;;;17.57;46.90
70555;BME280;58104;52.744;15.242;2024-02-21T10:08:04;100866.94;;;17.70;46.81
70555;BME280;58104;52.744;15.242;2024-02-21T10:10:42;100863.45;;;17.70;46.96
70555;BME280;58104;52.744;15.242;2024-02-21T10:12:54;100868.21;;;17.73;46.82
70555;BME280;58104;52.744;15.242;2024-02-21T10:15:20;100865.55;;;17.78;46.69
70555;BME280;58104;52.744;15.242;2024-02-21T10:17:45;100861.91;;;17.75;46.53
70555;BME280;58104;52.744;15.242;2024-02-21T10:20:11;100851.22;;;17.72;46.73
70555;BME280;58104;52.744;15.242;2024-02-21T10:22:38;100843.56;;;17.63;46.16
70555;BME280;58104;52.744;15.242;2024-02-21T10:25:06;100841.88;;;17.69;46.58
70555;BME280;58104;52.744;15.242;2024-02-21T10:27:27;100843.70;;;17.75;46.42
70555;BME280;58104;52.744;15.242;2024-02-21T10:29:52;100849.62;;;17.84;45.74
70555;BME280;58104;52.744;15.242;2024-02-21T10:32:17;100845.77;;;17.82;46.34
70555;BME280;58104;52.744;15.242;2024-02-21T10:34:43;100847.82;;;18.02;46.25
70555;BME280;58104;52.744;15.242;2024-02-21T10:37:09;100850.25;;;17.93;45.89
70555;BME280;58104;52.744;15.242;2024-02-21T10:39:34;100848.74;;;17.90;45.93
70555;BME280;58104;52.744;15.242;2024-02-21T10:42:00;100845.63;;;17.85;46.25
70555;BME280;58104;52.744;15.242;2024-02-21T10:44:25;100844.62;;;17.92;45.92
70555;BME280;58104;52.744;15.242;2024-02-21T10:46:49;100842.97;;;17.78;46.53
70555;BME280;58104;52.744;15.242;2024-02-21T10:49:20;100843.24;;;17.92;46.47
70555;BME280;58104;52.744;15.242;2024-02-21T10:51:43;100844.37;;;17.87;46.39
70555;BME280;58104;52.744;15.242;2024-02-21T10:54:15;100843.48;;;17.88;45.85
70555;BME280;58104;52.744;15.242;2024-02-21T10:56:31;100838.12;;;17.91;46.18
70555;BME280;58104;52.744;15.242;2024-02-21T10:58:58;100837.39;;;17.80;45.90
70555;BME280;58104;52.744;15.242;2024-02-21T11:01:20;100826.31;;;17.79;46.10
70555;BME280;58104;52.744;15.242;2024-02-21T11:03:47;100821.30;;;17.79;45.99
70555;BME280;58104;52.744;15.242;2024-02-21T11:06:12;100807.16;;;17.79;46.23
70555;BME280;58104;52.744;15.242;2024-02-21T11:08:37;100807.81;;;17.83;46.08
70555;BME280;58104;52.744;15.242;2024-02-21T11:11:05;100811.30;;;17.80;45.83
70555;BME280;58104;52.744;15.242;2024-02-21T11:13:31;100806.30;;;17.72;46.17
70555;BME280;58104;52.744;15.242;2024-02-21T11:15:53;100805.17;;;17.77;45.99
70555;BME280;58104;52.744;15.242;2024-02-21T11:18:23;100803.65;;;17.77;46.26
70555;BME280;58104;52.744;15.242;2024-02-21T11:20:49;100794.35;;;17.94;45.82
70555;BME280;58104;52.744;15.242;2024-02-21T11:23:09;100789.93;;;17.91;46.35
70555;BME280;58104;52.744;15.242;2024-02-21T11:25:34;100791.13;;;17.88;45.39
70555;BME280;58104;52.744;15.242;2024-02-21T11:28:01;100788.07;;;17.88;45.69
70555;BME280;58104;52.744;15.242;2024-02-21T11:30:27;100785.87;;;17.97;45.67
70555;BME280;58104;52.744;15.242;2024-02-21T11:33:01;100780.78;;;17.86;45.69
70555;BME280;58104;52.744;15.242;2024-02-21T11:35:19;100777.97;;;17.90;45.54
70555;BME280;58104;52.744;15.242;2024-02-21T11:37:42;100782.73;;;17.87;45.54
70555;BME280;58104;52.744;15.242;2024-02-21T11:40:07;100775.69;;;17.87;45.87
70555;BME280;58104;52.744;15.242;2024-02-21T11:42:32;100777.61;;;17.83;45.86
70555;BME280;58104;52.744;15.242;2024-02-21T11:44:57;100777.96;;;18.06;46.02
70555;BME280;58104;52.744;15.242;2024-02-21T11:47:23;100785.28;;;17.98;45.28
70555;BME280;58104;52.744;15.242;2024-02-21T11:49:48;100786.88;;;18.03;45.31
70555;BME280;58104;52.744;15.242;2024-02-21T11:52:14;100765.32;;;17.85;45.85
70555;BME280;58104;52.744;15.242;2024-02-21T11:54:39;100768.36;;;17.92;45.03
70555;BME280;58104;52.744;15.242;2024-02-21T11:57:04;100764.69;;;17.96;45.45
70555;BME280;58104;52.744;15.242;2024-02-21T11:59:30;100756.20;;;17.97;45.37
70555;BME280;58104;52.744;15.242;2024-02-21T12:01:55;100756.03;;;18.09;45.43
70555;BME280;58104;52.744;15.242;2024-02-21T12:04:20;100752.71;;;18.10;45.28
70555;BME280;58104;52.744;15.242;2024-02-21T12:06:46;100749.63;;;18.10;45.48
70555;BME280;58104;52.744;15.242;2024-02-21T12:09:14;100739.25;;;18.03;45.53
70555;BME280;58104;52.744;15.242;2024-02-21T12:11:36;100739.91;;;18.09;45.08
70555;BME280;58104;52.744;15.242;2024-02-21T12:14:02;100741.45;;;18.13;45.00
70555;BME280;58104;52.744;15.242;2024-02-21T12:16:27;100734.60;;;18.06;45.63
70555;BME280;58104;52.744;15.242;2024-02-21T12:18:53;100738.56;;;18.11;45.70
70555;BME280;58104;52.744;15.242;2024-02-21T12:21:17;100741.44;;;18.12;45.20
70555;BME280;58104;52.744;15.242;2024-02-21T12:23:42;100737.45;;;18.20;44.85
70555;BME280;58104;52.744;15.242;2024-02-21T12:26:07;100729.47;;;18.10;45.29
70555;BME280;58104;52.744;15.242;2024-02-21T12:28:33;100725.77;;;18.08;45.16
70555;BME280;58104;52.744;15.242;2024-02-21T12:30:58;100720.42;;;18.05;45.24